sensor_id;sensor_type;location;lat;lon;timestamp;pressure;altitude;pressure_sealevel;temperature;humidity
41264;BME280;26998;48.714;9.414;2023-04-09T00:00:37;100132.41;;;6.32;100.00
41264;BME280;26998;48.714;9.414;2023-04-09T00:03:04;100128.34;;;6.37;100.00
41264;BME280;26998;48.714;9.414;2023-04-09T00:05:38;100126.25;;;6.41;100.00
41264;BME280;26998;48.714;9.414;2023-04-09T00:08:05;100128.78;;;6.42;100.00
41264;BME280;26998;48.714;9.414;2023-04-09T00:10:32;100121.38;;;6.36;100.00
41264;BME280;26998;48.714;9.414;2023-04-09T00:12:59;100119.13;;;6.32;100.00
41264;BME280;26998;48.714;9.414;2023-04-09T00:15:25;100120.81;;;6.33;100.00
41264;BME280;26998;48.714;9.414;2023-04-09T00:17:57;100128.91;;;6.31;100.00
41264;BME280;26998;48.714;9.414;2023-04-09T00:20:23;100137.16;;;6.28;100.00
41264;BME280;26998;48.714;9.414;2023-04-09T00:22:50;100141.63;;;6.28;100.00
41264;BME280;26998;48.714;9.414;2023-04-09T00:25:17;100143.44;;;6.27;100.00
41264;BME280;26998;48.714;9.414;2023-04-09T00:27:44;100133.78;;;6.26;100.00
41264;BME280;26998;48.714;9.414;2023-04-09T00:30:11;100145.94;;;6.29;100.00
41264;BME280;26998;48.714;9.414;2023-04-09T00:32:38;100135.06;;;6.32;100.00
41264;BME280;26998;48.714;9.414;2023-04-09T00:35:05;100119.41;;;6.29;100.00
41264;BME280;26998;48.714;9.414;2023-04-09T00:37:32;100113.97;;;6.30;100.00
41264;BME280;26998;48.714;9.414;2023-04-09T00:39:59;100124.59;;;6.30;100.00
41264;BME280;26998;48.714;9.414;2023-04-09T00:42:25;100132.28;;;6.33;100.00
41264;BME280;26998;48.714;9.414;2023-04-09T00:44:52;100139.53;;;6.31;100.00
41264;BME280;26998;48.714;9.414;2023-04-09T00:47:18;100155.75;;;6.28;100.00
41264;BME280;26998;48.714;9.414;2023-04-09T00:49:45;100155.03;;;6.26;100.00
41264;BME280;26998;48.714;9.414;2023-04-09T00:52:12;100168.47;;;6.24;100.00
41264;BME280;26998;48.714;9.414;2023-04-09T00:54:38;100170.69;;;6.29;100.00
41264;BME280;26998;48.714;9.414;2023-04-09T00:57:05;100165.09;;;6.32;100.00
41264;BME280;26998;48.714;9.414;2023-04-09T00:59:32;100170.41;;;6.32;100.00
41264;BME280;26998;48.714;9.414;2023-04-09T01:01:58;100162.59;;;6.31;100.00
41264;BME280;26998;48.714;9.414;2023-04-09T01:04:25;100162.59;;;6.31;100.00
41264;BME280;26998;48.714;9.414;2023-04-09T01:09:36;100167.75;;;6.22;100.00
41264;BME280;26998;48.714;9.414;2023-04-09T01:12:21;100170.69;;;6.19;100.00
41264;BME280;26998;48.714;9.414;2023-04-09T01:14:56;100175.16;;;6.19;100.00
41264;BME280;26998;48.714;9.414;2023-04-09T01:17:49;100177.97;;;6.17;100.00
41264;BME280;26998;48.714;9.414;2023-04-09T01:20:39;100181.00;;;6.13;100.00
41264;BME280;26998;48.714;9.414;2023-04-09T01:23:17;100188.13;;;6.12;100.00
41264;BME280;26998;48.714;9.414;2023-04-09T01:26:09;100182.81;;;6.03;100.00
41264;BME280;26998;48.714;9.414;2023-04-09T01:28:41;100195.38;;;6.00;100.00
41264;BME280;26998;48.714;9.414;2023-04-09T01:31:12;100198.56;;;5.94;100.00
41264;BME280;26998;48.714;9.414;2023-04-09T01:33:40;100203.16;;;5.92;100.00
41264;BME280;26998;48.714;9.414;2023-04-09T01:36:07;100214.38;;;5.96;100.00
41264;BME280;26998;48.714;9.414;2023-04-09T01:38:35;100219.66;;;5.96;100.00
41264;BME280;26998;48.714;9.414;2023-04-09T01:41:06;100221.84;;;5.91;100.00
41264;BME280;26998;48.714;9.414;2023-04-09T01:43:33;100234.59;;;5.97;100.00
41264;BME280;26998;48.714;9.414;2023-04-09T01:46:00;100235.31;;;5.99;100.00
41264;BME280;26998;48.714;9.414;2023-04-09T01:48:28;100235.44;;;5.97;100.00
41264;BME280;26998;48.714;9.414;2023-04-09T01:50:57;100226.47;;;5.89;100.00
41264;BME280;26998;48.714;9.414;2023-04-09T01:53:24;100230.06;;;5.88;100.00
41264;BME280;26998;48.714;9.414;2023-04-09T01:55:50;100225.59;;;5.88;100.00
41264;BME280;26998;48.714;9.414;2023-04-09T01:58:17;100232.88;;;5.86;100.00
41264;BME280;26998;48.714;9.414;2023-04-09T02:00:47;100230.63;;;5.91;100.00
41264;BME280;26998;48.714;9.414;2023-04-09T02:03:33;100223.81;;;5.89;100.00
41264;BME280;26998;48.714;9.414;2023-04-09T02:06:12;100228.09;;;5.80;100.00
41264;BME280;26998;48.714;9.414;2023-04-09T02:08:43;100232.31;;;5.83;100.00
41264;BME280;26998;48.714;9.414;2023-04-09T02:11:13;100243.75;;;5.83;100.00
41264;BME280;26998;48.714;9.414;2023-04-09T02:13:40;100243.75;;;5.83;100.00
41264;BME280;26998;48.714;9.414;2023-04-09T02:16:10;100245.38;;;5.74;100.00
41264;BME280;26998;48.714;9.414;2023-04-09T02:18:36;100247.47;;;5.71;100.00
41264;BME280;26998;48.714;9.414;2023-04-09T02:21:03;100243.38;;;5.67;100.00
41264;BME280;26998;48.714;9.414;2023-04-09T02:23:57;100270.88;;;5.66;100.00
41264;BME280;26998;48.714;9.414;2023-04-09T02:26:24;100267.13;;;5.68;100.00
41264;BME280;26998;48.714;9.414;2023-04-09T02:28:51;100274.53;;;5.65;100.00
41264;BME280;26998;48.714;9.414;2023-04-09T02:31:17;100275.63;;;5.62;100.00
41264;BME280;26998;48.714;9.414;2023-04-09T02:33:44;100280.78;;;5.64;100.00
41264;BME280;26998;48.714;9.414;2023-04-09T02:36:11;100284.88;;;5.68;100.00
41264;BME280;26998;48.714;9.414;2023-04-09T02:38:41;100278.47;;;5.70;100.00
41264;BME280;26998;48.714;9.414;2023-04-09T02:41:09;100283.78;;;5.70;100.00
41264;BME280;26998;48.714;9.414;2023-04-09T02:43:35;100272.19;;;5.71;100.00
41264;BME280;26998;48.714;9.414;2023-04-09T02:46:02;100283.38;;;5.75;100.00
41264;BME280;26998;48.714;9.414;2023-04-09T02:48:29;100277.34;;;5.73;100.00
41264;BME280;26998;48.714;9.414;2023-04-09T02:50:56;100260.59;;;5.72;100.00
41264;BME280;26998;48.714;9.414;2023-04-09T02:53:22;100275.56;;;5.73;100.00
41264;BME280;26998;48.714;9.414;2023-04-09T02:55:49;100270.25;;;5.73;100.00
41264;BME280;26998;48.714;9.414;2023-04-09T02:58:15;100266.59;;;5.74;100.00
41264;BME280;26998;48.714;9.414;2023-04-09T03:00:42;100261.31;;;5.74;100.00
41264;BME280;26998;48.714;9.414;2023-04-09T03:03:08;100274.41;;;5.76;100.00
41264;BME280;26998;48.714;9.414;2023-04-09T03:05:36;100268.16;;;5.77;100.00
41264;BME280;26998;48.714;9.414;2023-04-09T03:08:02;100262.13;;;5.75;100.00
41264;BME280;26998;48.714;9.414;2023-04-09T03:10:29;100249.84;;;5.74;100.00
41264;BME280;26998;48.714;9.414;2023-04-09T03:12:55;100246.63;;;5.70;100.00
41264;BME280;26998;48.714;9.414;2023-04-09T03:15:22;100244.38;;;5.66;100.00
41264;BME280;26998;48.714;9.414;2023-04-09T03:17:48;100254.13;;;5.65;100.00
41264;BME280;26998;48.714;9.414;2023-04-09T03:20:15;100260.69;;;5.61;100.00
41264;BME280;26998;48.714;9.414;2023-04-09T03:22:41;100260.81;;;5.60;100.00
41264;BME280;26998;48.714;9.414;2023-04-09T03:25:08;100269.03;;;5.56;100.00
41264;BME280;26998;48.714;9.414;2023-04-09T03:27:35;100271.56;;;5.58;100.00
41264;BME280;26998;48.714;9.414;2023-04-09T03:30:01;100277.69;;;5.59;100.00
41264;BME280;26998;48.714;9.414;2023-04-09T03:32:28;100280.09;;;5.62;100.00
41264;BME280;26998;48.714;9.414;2023-04-09T03:34:54;100279.09;;;5.63;100.00
41264;BME280;26998;48.714;9.414;2023-04-09T03:37:21;100279.25;;;5.61;100.00
41264;BME280;26998;48.714;9.414;2023-04-09T03:39:47;100277.44;;;5.62;100.00
41264;BME280;26998;48.714;9.414;2023-04-09T03:42:14;100272.97;;;5.62;100.00
41264;BME280;26998;48.714;9.414;2023-04-09T03:44:40;100281.03;;;5.61;100.00
41264;BME280;26998;48.714;9.414;2023-04-09T03:47:07;100276.00;;;5.57;100.00
41264;BME280;26998;48.714;9.414;2023-04-09T03:49:34;100279.19;;;5.51;100.00
41264;BME280;26998;48.714;9.414;2023-04-09T03:52:01;100276.56;;;5.51;100.00
41264;BME280;26998;48.714;9.414;2023-04-09T03:54:28;100284.69;;;5.39;100.00
41264;BME280;26998;48.714;9.414;2023-04-09T03:56:55;100292.31;;;5.32;100.00
41264;BME280;26998;48.714;9.414;2023-04-09T03:59:22;100293.50;;;5.39;100.00
41264;BME280;26998;48.714;9.414;2023-04-09T04:01:49;100291.09;;;5.36;100.00
41264;BME280;26998;48.714;9.414;2023-04-09T04:04:16;100297.34;;;5.35;100.00
41264;BME280;26998;48.714;9.414;2023-04-09T04:06:42;100302.66;;;5.35;100.00
41264;BME280;26998;48.714;9.414;2023-04-09T04:09:09;100303.63;;;5.34;100.00
41264;BME280;26998;48.714;9.414;2023-04-09T04:11:35;100301.97;;;5.33;100.00
41264;BME280;26998;48.714;9.414;2023-04-09T04:14:02;100304.72;;;5.31;100.00
41264;BME280;26998;48.714;9.414;2023-04-09T04:16:29;100315.47;;;5.30;100.00
41264;BME280;26998;48.714;9.414;2023-04-09T04:18:55;100327.75;;;5.31;100.00
41264;BME280;26998;48.714;9.414;2023-04-09T04:21:22;100325.09;;;5.31;100.00
41264;BME280;26998;48.714;9.414;2023-04-09T04:23:48;100329.91;;;5.37;100.00
41264;BME280;26998;48.714;9.414;2023-04-09T04:26:15;100328.91;;;5.38;100.00
41264;BME280;26998;48.714;9.414;2023-04-09T04:28:41;100331.56;;;5.38;100.00
41264;BME280;26998;48.714;9.414;2023-04-09T04:31:09;100321.78;;;5.39;100.00
41264;BME280;26998;48.714;9.414;2023-04-09T04:33:36;100324.34;;;5.40;100.00
41264;BME280;26998;48.714;9.414;2023-04-09T04:36:11;100319.28;;;5.37;100.00
41264;BME280;26998;48.714;9.414;2023-04-09T04:38:38;100321.22;;;5.35;100.00
41264;BME280;26998;48.714;9.414;2023-04-09T04:41:05;100321.22;;;5.35;100.00
41264;BME280;26998;48.714;9.414;2023-04-09T04:43:32;100329.69;;;5.29;100.00
41264;BME280;26998;48.714;9.414;2023-04-09T04:45:59;100330.53;;;5.29;100.00
41264;BME280;26998;48.714;9.414;2023-04-09T04:48:27;100345.34;;;5.32;100.00
41264;BME280;26998;48.714;9.414;2023-04-09T04:50:58;100340.19;;;5.30;100.00
41264;BME280;26998;48.714;9.414;2023-04-09T04:53:25;100331.25;;;5.31;100.00
41264;BME280;26998;48.714;9.414;2023-04-09T04:55:52;100338.34;;;5.31;100.00
41264;BME280;26998;48.714;9.414;2023-04-09T04:58:19;100339.09;;;5.33;100.00
41264;BME280;26998;48.714;9.414;2023-04-09T05:00:45;100333.81;;;5.22;100.00
41264;BME280;26998;48.714;9.414;2023-04-09T05:03:12;100338.94;;;5.35;100.00
41264;BME280;26998;48.714;9.414;2023-04-09T05:05:39;100337.91;;;5.47;100.00
41264;BME280;26998;48.714;9.414;2023-04-09T05:08:05;100336.81;;;5.49;100.00
41264;BME280;26998;48.714;9.414;2023-04-09T05:10:32;100318.25;;;5.49;100.00
41264;BME280;26998;48.714;9.414;2023-04-09T05:12:59;100319.81;;;5.52;100.00
41264;BME280;26998;48.714;9.414;2023-04-09T05:15:25;100324.59;;;5.58;100.00
41264;BME280;26998;48.714;9.414;2023-04-09T05:17:52;100316.81;;;5.66;100.00
41264;BME280;26998;48.714;9.414;2023-04-09T05:20:19;100308.47;;;5.71;100.00
41264;BME280;26998;48.714;9.414;2023-04-09T05:22:45;100298.28;;;5.76;100.00
41264;BME280;26998;48.714;9.414;2023-04-09T05:25:12;100289.81;;;5.82;100.00
41264;BME280;26998;48.714;9.414;2023-04-09T05:27:38;100282.03;;;5.90;100.00
41264;BME280;26998;48.714;9.414;2023-04-09T05:30:05;100269.56;;;5.81;100.00
41264;BME280;26998;48.714;9.414;2023-04-09T05:32:32;100278.72;;;5.67;100.00
41264;BME280;26998;48.714;9.414;2023-04-09T05:34:59;100284.94;;;5.56;100.00
41264;BME280;26998;48.714;9.414;2023-04-09T05:37:25;100311.47;;;5.56;100.00
41264;BME280;26998;48.714;9.414;2023-04-09T05:39:52;100318.72;;;5.54;100.00
41264;BME280;26998;48.714;9.414;2023-04-09T05:42:19;100313.59;;;5.63;100.00
41264;BME280;26998;48.714;9.414;2023-04-09T05:44:45;100312.75;;;5.62;100.00
41264;BME280;26998;48.714;9.414;2023-04-09T05:47:12;100307.56;;;5.61;100.00
41264;BME280;26998;48.714;9.414;2023-04-09T05:49:38;100309.16;;;5.73;100.00
41264;BME280;26998;48.714;9.414;2023-04-09T05:52:04;100298.38;;;5.86;100.00
41264;BME280;26998;48.714;9.414;2023-04-09T05:54:31;100287.84;;;5.95;100.00
41264;BME280;26998;48.714;9.414;2023-04-09T05:56:58;100265.34;;;5.99;100.00
41264;BME280;26998;48.714;9.414;2023-04-09T05:59:25;100220.53;;;6.06;100.00
41264;BME280;26998;48.714;9.414;2023-04-09T06:01:51;100153.09;;;6.18;100.00
41264;BME280;26998;48.714;9.414;2023-04-09T06:04:18;100088.53;;;6.28;100.00
41264;BME280;26998;48.714;9.414;2023-04-09T06:06:45;100027.75;;;6.34;100.00
41264;BME280;26998;48.714;9.414;2023-04-09T06:09:11;99972.03;;;6.62;100.00
41264;BME280;26998;48.714;9.414;2023-04-09T06:11:37;99955.53;;;6.68;100.00
41264;BME280;26998;48.714;9.414;2023-04-09T06:14:04;99917.22;;;6.88;100.00
41264;BME280;26998;48.714;9.414;2023-04-09T06:16:32;99880.53;;;7.02;100.00
41264;BME280;26998;48.714;9.414;2023-04-09T06:18:58;99891.22;;;6.92;100.00
41264;BME280;26998;48.714;9.414;2023-04-09T06:21:25;99895.88;;;7.08;100.00
41264;BME280;26998;48.714;9.414;2023-04-09T06:23:52;99880.16;;;7.14;100.00
41264;BME280;26998;48.714;9.414;2023-04-09T06:26:19;99886.75;;;7.28;100.00
41264;BME280;26998;48.714;9.414;2023-04-09T06:28:45;99844.06;;;7.30;100.00
41264;BME280;26998;48.714;9.414;2023-04-09T06:31:12;99823.75;;;7.47;100.00
41264;BME280;26998;48.714;9.414;2023-04-09T06:33:39;99789.91;;;7.57;100.00
41264;BME280;26998;48.714;9.414;2023-04-09T06:36:06;99790.28;;;7.62;100.00
41264;BME280;26998;48.714;9.414;2023-04-09T06:38:32;99756.53;;;7.62;100.00
41264;BME280;26998;48.714;9.414;2023-04-09T06:40:59;99779.59;;;7.54;100.00
41264;BME280;26998;48.714;9.414;2023-04-09T06:43:25;99747.94;;;8.03;100.00
41264;BME280;26998;48.714;9.414;2023-04-09T06:45:52;99740.38;;;7.90;100.00
41264;BME280;26998;48.714;9.414;2023-04-09T06:48:18;99721.31;;;8.03;100.00
41264;BME280;26998;48.714;9.414;2023-04-09T06:50:45;99718.19;;;8.07;100.00
41264;BME280;26998;48.714;9.414;2023-04-09T06:53:11;99704.69;;;8.09;100.00
41264;BME280;26998;48.714;9.414;2023-04-09T06:55:38;99673.72;;;8.00;100.00
41264;BME280;26998;48.714;9.414;2023-04-09T06:58:04;99676.09;;;8.19;100.00
41264;BME280;26998;48.714;9.414;2023-04-09T07:00:31;99675.94;;;8.21;100.00
41264;BME280;26998;48.714;9.414;2023-04-09T07:02:58;99635.72;;;8.40;100.00
41264;BME280;26998;48.714;9.414;2023-04-09T07:05:25;99647.50;;;8.29;100.00
41264;BME280;26998;48.714;9.414;2023-04-09T07:07:51;99624.84;;;8.25;100.00
41264;BME280;26998;48.714;9.414;2023-04-09T07:10:18;99651.56;;;8.42;100.00
41264;BME280;26998;48.714;9.414;2023-04-09T07:12:45;99616.41;;;8.87;100.00
41264;BME280;26998;48.714;9.414;2023-04-09T07:15:11;99611.41;;;8.84;100.00
41264;BME280;26998;48.714;9.414;2023-04-09T07:17:38;99594.22;;;9.03;100.00
41264;BME280;26998;48.714;9.414;2023-04-09T07:20:05;99594.88;;;9.05;100.00
41264;BME280;26998;48.714;9.414;2023-04-09T07:22:31;99586.59;;;8.92;100.00
41264;BME280;26998;48.714;9.414;2023-04-09T07:24:58;99589.94;;;8.86;100.00
41264;BME280;26998;48.714;9.414;2023-04-09T07:27:26;99589.91;;;8.94;100.00
41264;BME280;26998;48.714;9.414;2023-04-09T07:29:54;99587.41;;;9.00;100.00
41264;BME280;26998;48.714;9.414;2023-04-09T07:32:21;99574.63;;;9.35;100.00
41264;BME280;26998;48.714;9.414;2023-04-09T07:34:50;99576.72;;;9.09;100.00
41264;BME280;26998;48.714;9.414;2023-04-09T07:37:17;99574.91;;;9.01;100.00
41264;BME280;26998;48.714;9.414;2023-04-09T07:39:46;99583.38;;;9.13;100.00
41264;BME280;26998;48.714;9.414;2023-04-09T07:42:12;99579.66;;;9.22;100.00
41264;BME280;26998;48.714;9.414;2023-04-09T07:44:39;99575.88;;;9.08;100.00
41264;BME280;26998;48.714;9.414;2023-04-09T07:47:07;99569.47;;;9.34;100.00
41264;BME280;26998;48.714;9.414;2023-04-09T07:49:35;99549.13;;;9.33;100.00
41264;BME280;26998;48.714;9.414;2023-04-09T07:52:02;99554.84;;;9.21;100.00
41264;BME280;26998;48.714;9.414;2023-04-09T07:54:29;99572.34;;;9.24;100.00
41264;BME280;26998;48.714;9.414;2023-04-09T07:56:57;99574.59;;;9.43;100.00
41264;BME280;26998;48.714;9.414;2023-04-09T07:59:23;99578.41;;;9.49;100.00
41264;BME280;26998;48.714;9.414;2023-04-09T08:01:50;99539.63;;;9.92;100.00
41264;BME280;26998;48.714;9.414;2023-04-09T08:04:17;99538.09;;;9.75;100.00
41264;BME280;26998;48.714;9.414;2023-04-09T08:06:44;99535.53;;;9.82;100.00
41264;BME280;26998;48.714;9.414;2023-04-09T08:09:11;99544.31;;;9.59;100.00
41264;BME280;26998;48.714;9.414;2023-04-09T08:11:37;99535.75;;;10.03;100.00
41264;BME280;26998;48.714;9.414;2023-04-09T08:14:04;99545.06;;;9.45;100.00
41264;BME280;26998;48.714;9.414;2023-04-09T08:16:31;99550.09;;;9.40;100.00
41264;BME280;26998;48.714;9.414;2023-04-09T08:18:58;99550.09;;;9.40;100.00
41264;BME280;26998;48.714;9.414;2023-04-09T08:21:25;99545.56;;;9.48;100.00
41264;BME280;26998;48.714;9.414;2023-04-09T08:23:52;99547.91;;;9.43;100.00
41264;BME280;26998;48.714;9.414;2023-04-09T08:26:22;99563.31;;;9.64;100.00
41264;BME280;26998;48.714;9.414;2023-04-09T08:28:49;99547.91;;;9.75;100.00
41264;BME280;26998;48.714;9.414;2023-04-09T08:31:16;99521.00;;;10.53;100.00
41264;BME280;26998;48.714;9.414;2023-04-09T08:33:42;99519.41;;;10.44;100.00
41264;BME280;26998;48.714;9.414;2023-04-09T08:36:09;99516.88;;;10.80;100.00
41264;BME280;26998;48.714;9.414;2023-04-09T08:38:36;99510.31;;;10.68;100.00
41264;BME280;26998;48.714;9.414;2023-04-09T08:41:04;99520.69;;;10.48;100.00
41264;BME280;26998;48.714;9.414;2023-04-09T08:43:31;99514.34;;;10.49;100.00
41264;BME280;26998;48.714;9.414;2023-04-09T08:46:18;99521.66;;;11.15;100.00
41264;BME280;26998;48.714;9.414;2023-04-09T08:48:46;99511.06;;;10.92;100.00
41264;BME280;26998;48.714;9.414;2023-04-09T08:51:15;99515.88;;;11.26;99.10
41264;BME280;26998;48.714;9.414;2023-04-09T08:53:56;99511.41;;;11.48;98.84
41264;BME280;26998;48.714;9.414;2023-04-09T08:56:24;99510.91;;;11.59;96.29
41264;BME280;26998;48.714;9.414;2023-04-09T08:58:52;99509.94;;;11.30;99.26
41264;BME280;26998;48.714;9.414;2023-04-09T09:01:21;99512.59;;;10.42;100.00
41264;BME280;26998;48.714;9.414;2023-04-09T09:03:57;99510.75;;;10.42;100.00
41264;BME280;26998;48.714;9.414;2023-04-09T09:06:27;99523.19;;;10.50;100.00
41264;BME280;26998;48.714;9.414;2023-04-09T09:11:36;99520.84;;;10.99;100.00
41264;BME280;26998;48.714;9.414;2023-04-09T09:14:04;99520.50;;;10.50;100.00
41264;BME280;26998;48.714;9.414;2023-04-09T09:16:34;99520.63;;;10.56;100.00
41264;BME280;26998;48.714;9.414;2023-04-09T09:19:01;99514.41;;;10.94;100.00
41264;BME280;26998;48.714;9.414;2023-04-09T09:21:29;99515.03;;;10.81;100.00
41264;BME280;26998;48.714;9.414;2023-04-09T09:23:58;99518.53;;;11.11;97.39
41264;BME280;26998;48.714;9.414;2023-04-09T09:26:27;99516.34;;;11.66;94.53
41264;BME280;26998;48.714;9.414;2023-04-09T09:28:54;99515.41;;;11.37;96.57
41264;BME280;26998;48.714;9.414;2023-04-09T09:31:21;99508.53;;;11.49;93.04
41264;BME280;26998;48.714;9.414;2023-04-09T09:33:48;99507.19;;;11.24;94.46
41264;BME280;26998;48.714;9.414;2023-04-09T09:36:30;99509.53;;;11.48;95.25
41264;BME280;26998;48.714;9.414;2023-04-09T09:38:57;99506.56;;;11.58;92.25
41264;BME280;26998;48.714;9.414;2023-04-09T09:41:24;99512.69;;;11.88;92.20
41264;BME280;26998;48.714;9.414;2023-04-09T09:43:51;99511.69;;;12.11;90.39
41264;BME280;26998;48.714;9.414;2023-04-09T09:46:18;99505.00;;;12.00;92.50
41264;BME280;26998;48.714;9.414;2023-04-09T09:48:46;99509.50;;;12.21;93.15
41264;BME280;26998;48.714;9.414;2023-04-09T09:51:14;99518.31;;;12.15;91.62
41264;BME280;26998;48.714;9.414;2023-04-09T09:53:43;99510.22;;;12.58;84.11
41264;BME280;26998;48.714;9.414;2023-04-09T09:56:21;99513.84;;;12.71;81.32
41264;BME280;26998;48.714;9.414;2023-04-09T09:58:52;99509.59;;;12.56;82.63
41264;BME280;26998;48.714;9.414;2023-04-09T10:01:23;99508.25;;;12.45;85.28
41264;BME280;26998;48.714;9.414;2023-04-09T10:03:55;99500.22;;;11.59;90.25
41264;BME280;26998;48.714;9.414;2023-04-09T10:06:22;99501.56;;;12.06;88.24
41264;BME280;26998;48.714;9.414;2023-04-09T10:08:49;99501.69;;;12.76;79.99
41264;BME280;26998;48.714;9.414;2023-04-09T10:11:16;99513.88;;;12.50;75.23
41264;BME280;26998;48.714;9.414;2023-04-09T10:13:49;99514.81;;;12.14;78.97
41264;BME280;26998;48.714;9.414;2023-04-09T10:16:16;99507.97;;;13.24;68.33
41264;BME280;26998;48.714;9.414;2023-04-09T10:18:43;99517.00;;;12.82;69.94
41264;BME280;26998;48.714;9.414;2023-04-09T10:23:50;99507.59;;;12.64;71.82
41264;BME280;26998;48.714;9.414;2023-04-09T10:26:18;99512.28;;;12.84;73.70
41264;BME280;26998;48.714;9.414;2023-04-09T10:29:05;99515.09;;;13.45;67.11
41264;BME280;26998;48.714;9.414;2023-04-09T10:32:03;99508.94;;;13.58;68.14
41264;BME280;26998;48.714;9.414;2023-04-09T10:34:34;99504.78;;;13.14;62.81
41264;BME280;26998;48.714;9.414;2023-04-09T10:37:00;99510.94;;;13.08;62.93
41264;BME280;26998;48.714;9.414;2023-04-09T10:39:30;99503.94;;;12.72;62.31
41264;BME280;26998;48.714;9.414;2023-04-09T10:42:00;99497.97;;;12.77;61.98
41264;BME280;26998;48.714;9.414;2023-04-09T10:44:27;99505.88;;;12.07;60.02
41264;BME280;26998;48.714;9.414;2023-04-09T10:46:54;99497.59;;;11.66;66.10
41264;BME280;26998;48.714;9.414;2023-04-09T10:49:23;99499.53;;;11.72;65.51
41264;BME280;26998;48.714;9.414;2023-04-09T10:52:00;99494.53;;;12.55;61.56
41264;BME280;26998;48.714;9.414;2023-04-09T10:59:38;99478.66;;;12.04;56.40
41264;BME280;26998;48.714;9.414;2023-04-09T11:02:07;99486.19;;;11.93;57.81
41264;BME280;26998;48.714;9.414;2023-04-09T11:04:40;99478.03;;;12.30;55.81
41264;BME280;26998;48.714;9.414;2023-04-09T11:07:14;99487.81;;;12.65;51.97
41264;BME280;26998;48.714;9.414;2023-04-09T11:09:40;99486.63;;;12.46;52.48
41264;BME280;26998;48.714;9.414;2023-04-09T11:12:09;99476.47;;;12.14;53.62
41264;BME280;26998;48.714;9.414;2023-04-09T11:14:36;99473.56;;;12.09;55.61
41264;BME280;26998;48.714;9.414;2023-04-09T11:17:03;99476.13;;;12.80;53.32
41264;BME280;26998;48.714;9.414;2023-04-09T11:19:32;99476.56;;;13.18;54.33
41264;BME280;26998;48.714;9.414;2023-04-09T11:21:59;99472.84;;;12.84;55.48
41264;BME280;26998;48.714;9.414;2023-04-09T11:24:26;99472.50;;;13.35;56.70
41264;BME280;26998;48.714;9.414;2023-04-09T11:26:53;99466.56;;;13.40;53.22
41264;BME280;26998;48.714;9.414;2023-04-09T11:29:21;99469.81;;;13.35;51.29
41264;BME280;26998;48.714;9.414;2023-04-09T11:31:48;99460.16;;;13.48;53.01
41264;BME280;26998;48.714;9.414;2023-04-09T11:34:14;99454.25;;;14.39;48.03
41264;BME280;26998;48.714;9.414;2023-04-09T11:36:41;99454.50;;;14.24;49.36
41264;BME280;26998;48.714;9.414;2023-04-09T11:39:07;99464.53;;;13.55;48.96
41264;BME280;26998;48.714;9.414;2023-04-09T11:41:35;99458.53;;;13.60;50.03
41264;BME280;26998;48.714;9.414;2023-04-09T11:44:06;99452.81;;;13.96;48.93
41264;BME280;26998;48.714;9.414;2023-04-09T11:46:34;99455.94;;;14.06;47.19
41264;BME280;26998;48.714;9.414;2023-04-09T11:49:01;99453.81;;;14.88;45.25
41264;BME280;26998;48.714;9.414;2023-04-09T11:51:29;99457.38;;;13.96;46.22
41264;BME280;26998;48.714;9.414;2023-04-09T11:54:01;99457.78;;;14.13;44.81
41264;BME280;26998;48.714;9.414;2023-04-09T11:56:28;99455.69;;;13.88;45.34
41264;BME280;26998;48.714;9.414;2023-04-09T11:58:55;99456.34;;;14.37;43.88
41264;BME280;26998;48.714;9.414;2023-04-09T12:01:22;99452.00;;;14.69;44.52
41264;BME280;26998;48.714;9.414;2023-04-09T12:03:54;99454.91;;;14.67;43.95
41264;BME280;26998;48.714;9.414;2023-04-09T12:06:22;99444.41;;;15.17;43.24
41264;BME280;26998;48.714;9.414;2023-04-09T12:08:58;99450.75;;;14.71;43.08
41264;BME280;26998;48.714;9.414;2023-04-09T12:11:29;99457.00;;;14.52;42.06
41264;BME280;26998;48.714;9.414;2023-04-09T12:14:03;99436.00;;;14.87;42.88
41264;BME280;26998;48.714;9.414;2023-04-09T12:16:31;99449.31;;;14.29;44.41
41264;BME280;26998;48.714;9.414;2023-04-09T12:19:02;99435.44;;;14.45;43.85
41264;BME280;26998;48.714;9.414;2023-04-09T12:21:50;99440.63;;;14.20;44.50
41264;BME280;26998;48.714;9.414;2023-04-09T12:24:18;99436.91;;;14.35;43.40
41264;BME280;26998;48.714;9.414;2023-04-09T12:26:46;99440.53;;;15.00;42.13
41264;BME280;26998;48.714;9.414;2023-04-09T12:29:13;99436.88;;;13.81;43.46
41264;BME280;26998;48.714;9.414;2023-04-09T12:31:41;99436.91;;;14.01;44.30
41264;BME280;26998;48.714;9.414;2023-04-09T12:34:08;99436.06;;;13.94;43.69
41264;BME280;26998;48.714;9.414;2023-04-09T12:36:35;99435.66;;;13.97;43.59
41264;BME280;26998;48.714;9.414;2023-04-09T12:39:01;99432.78;;;14.52;43.48
41264;BME280;26998;48.714;9.414;2023-04-09T12:41:28;99430.88;;;14.72;41.79
41264;BME280;26998;48.714;9.414;2023-04-09T12:43:55;99427.03;;;15.07;41.92
41264;BME280;26998;48.714;9.414;2023-04-09T12:46:21;99417.25;;;15.19;42.46
41264;BME280;26998;48.714;9.414;2023-04-09T12:48:48;99428.59;;;14.69;41.60
41264;BME280;26998;48.714;9.414;2023-04-09T12:51:14;99428.72;;;14.94;40.65
41264;BME280;26998;48.714;9.414;2023-04-09T12:53:41;99431.09;;;14.38;40.86
41264;BME280;26998;48.714;9.414;2023-04-09T12:56:07;99425.09;;;14.36;40.97
41264;BME280;26998;48.714;9.414;2023-04-09T12:58:34;99416.19;;;14.42;40.65
41264;BME280;26998;48.714;9.414;2023-04-09T13:01:01;99419.03;;;15.32;39.53
41264;BME280;26998;48.714;9.414;2023-04-09T13:03:27;99412.22;;;15.36;38.86
41264;BME280;26998;48.714;9.414;2023-04-09T13:05:55;99413.69;;;14.73;39.82
41264;BME280;26998;48.714;9.414;2023-04-09T13:08:21;99410.69;;;15.08;39.99
41264;BME280;26998;48.714;9.414;2023-04-09T13:10:48;99398.31;;;15.32;39.28
41264;BME280;26998;48.714;9.414;2023-04-09T13:13:15;99397.72;;;15.30;39.46